Time,TemperatureF,DewpointF,PressureIn,WindDirection,WindDirectionDegrees,WindSpeedMPH,WindSpeedGustMPH,Humidity,HourlyPrecipIn,Conditions,Clouds,dailyrainin,SolarRadiationWatts/m^2,SoftwareType,DateUTC
2013-02-24 00:00:00,60.3,58.8,29.81,SE,133,0.0,9.0,95,0.11,,,1.53,0.0,meteohub,2013-02-24 05:00:00,
2013-02-24 00:01:00,60.3,58.8,29.82,SSE,155,5.0,9.0,95,0.10,,,1.53,0.0,meteohub,2013-02-24 05:01:00,
2013-02-24 00:06:00,60.3,58.8,29.83,SSW,207,2.0,9.0,95,0.09,,,0.00,0.0,meteohub,2013-02-24 05:06:00,
2013-02-24 00:11:00,60.3,58.8,29.81,ESE,123,2.0,8.0,95,0.04,,,0.00,0.0,meteohub,2013-02-24 05:11:00,
2013-02-24 00:16:00,60.3,58.8,29.82,South,169,4.0,7.0,95,0.03,,,0.00,0.0,meteohub,2013-02-24 05:16:00,
2013-02-24 00:21:00,60.3,58.8,29.82,ESE,117,1.0,5.0,95,0.03,,,0.01,0.0,meteohub,2013-02-24 05:21:00,
2013-02-24 00:26:00,60.3,58.8,29.82,South,176,4.0,5.0,95,0.03,,,0.01,0.0,meteohub,2013-02-24 05:26:00,
2013-02-24 00:31:00,60.3,58.8,29.81,SE,142,0.0,7.0,95,0.02,,,0.01,0.0,meteohub,2013-02-24 05:31:00,
2013-02-24 00:36:00,60.1,58.6,29.81,ESE,123,0.0,7.0,95,0.02,,,0.01,0.0,meteohub,2013-02-24 05:36:00,
2013-02-24 00:41:00,60.1,58.6,29.81,SSE,149,0.0,7.0,95,0.02,,,0.01,0.0,meteohub,2013-02-24 05:41:00,
2013-02-24 00:46:00,60.1,58.6,29.82,SE,135,0.0,7.0,95,0.02,,,0.02,0.0,meteohub,2013-02-24 05:46:00,
2013-02-24 00:51:00,60.1,58.6,29.82,SSE,150,0.0,5.0,95,0.02,,,0.02,0.0,meteohub,2013-02-24 05:51:00,
2013-02-24 00:56:00,60.1,58.6,29.81,SSE,150,0.0,5.0,95,0.02,,,0.02,0.0,meteohub,2013-02-24 05:56:00,
2013-02-24 01:01:00,60.1,58.6,29.82,South,190,0.0,5.0,95,0.02,,,0.02,0.0,meteohub,2013-02-24 06:01:00,
2013-02-24 01:06:00,59.9,58.5,29.82,SSE,163,0.0,4.0,95,0.02,,,0.02,0.0,meteohub,2013-02-24 06:06:00,
2013-02-24 01:11:00,59.9,58.5,29.82,SSE,165,1.0,4.0,95,0.02,,,0.02,0.0,meteohub,2013-02-24 06:11:00,
2013-02-24 01:16:00,59.9,58.5,29.82,SSE,151,2.0,5.0,95,0.01,,,0.02,0.0,meteohub,2013-02-24 06:16:00,
2013-02-24 01:21:00,59.7,58.3,29.82,South,171,0.0,5.0,95,0.01,,,0.02,0.0,meteohub,2013-02-24 06:21:00,
2013-02-24 01:26:00,59.7,58.3,29.82,SSE,168,0.0,7.0,95,0.01,,,0.02,0.0,meteohub,2013-02-24 06:26:00,
2013-02-24 01:31:00,59.7,58.3,29.82,SSE,150,0.0,7.0,95,0.01,,,0.02,0.0,meteohub,2013-02-24 06:31:00,
2013-02-24 01:36:00,59.7,58.3,29.83,South,178,3.0,7.0,95,0.01,,,0.02,0.0,meteohub,2013-02-24 06:36:00,
2013-02-24 01:41:00,59.7,58.3,29.82,SE,142,0.0,7.0,95,0.01,,,0.02,0.0,meteohub,2013-02-24 06:41:00,
2013-02-24 01:46:00,59.7,58.3,29.82,SE,142,0.0,7.0,95,0.00,,,0.02,0.0,meteohub,2013-02-24 06:46:00,
2013-02-24 01:51:00,59.9,58.5,29.83,SE,142,0.0,4.0,95,0.00,,,0.02,0.0,meteohub,2013-02-24 06:51:00,
2013-02-24 01:56:00,59.7,58.3,29.83,SE,142,0.0,2.0,95,0.00,,,0.02,0.0,meteohub,2013-02-24 06:56:00,
2013-02-24 02:01:00,59.9,58.5,29.84,SE,142,0.0,2.0,95,0.00,,,0.02,0.0,meteohub,2013-02-24 07:01:00,
2013-02-24 02:06:00,59.9,58.5,29.84,WNW,288,0.0,3.0,95,0.00,,,0.02,0.0,meteohub,2013-02-24 07:06:00,
2013-02-24 02:11:00,60.1,58.6,29.84,WNW,288,0.0,3.0,95,0.00,,,0.02,0.0,meteohub,2013-02-24 07:11:00,
2013-02-24 02:16:00,60.1,58.6,29.84,WNW,288,0.0,3.0,95,0.00,,,0.02,0.0,meteohub,2013-02-24 07:16:00,
2013-02-24 02:21:00,60.1,58.6,29.84,WNW,288,0.0,3.0,95,0.00,,,0.02,0.0,meteohub,2013-02-24 07:21:00,
2013-02-24 02:26:00,60.1,58.6,29.85,WNW,288,0.0,3.0,95,0.00,,,0.02,0.0,meteohub,2013-02-24 07:26:00,
2013-02-24 02:31:00,60.1,58.6,29.86,WNW,288,1.0,3.0,95,0.00,,,0.02,0.0,meteohub,2013-02-24 07:31:00,
2013-02-24 02:36:00,60.1,58.6,29.86,WNW,288,1.0,2.0,95,0.00,,,0.02,0.0,meteohub,2013-02-24 07:36:00,
2013-02-24 02:41:00,60.1,58.6,29.86,WNW,288,0.0,5.0,95,0.00,,,0.02,0.0,meteohub,2013-02-24 07:41:00,
2013-02-24 02:46:00,60.1,58.6,29.85,West,272,1.0,5.0,95,0.00,,,0.02,0.0,meteohub,2013-02-24 07:46:00,
2013-02-24 02:51:00,60.3,58.8,29.86,West,270,0.0,5.0,95,0.00,,,0.02,0.0,meteohub,2013-02-24 07:51:00,
2013-02-24 02:56:00,60.3,58.8,29.86,West,277,1.0,4.0,95,0.00,,,0.02,0.0,meteohub,2013-02-24 07:56:00,
2013-02-24 03:01:00,60.3,58.8,29.86,SW,227,0.0,4.0,95,0.00,,,0.02,0.0,meteohub,2013-02-24 08:01:00,
2013-02-24 03:06:00,60.3,58.8,29.87,WNW,291,0.0,6.0,95,0.00,,,0.02,0.0,meteohub,2013-02-24 08:06:00,
2013-02-24 03:11:00,60.3,59.2,29.87,WNW,288,0.0,6.0,96,0.00,,,0.02,0.0,meteohub,2013-02-24 08:11:00,
2013-02-24 03:16:00,60.3,58.8,29.87,West,273,1.0,9.0,95,0.00,,,0.02,0.0,meteohub,2013-02-24 08:16:00,
2013-02-24 03:21:00,60.3,58.8,29.87,WNW,287,9.0,9.0,95,0.00,,,0.02,0.0,meteohub,2013-02-24 08:21:00,
2013-02-24 03:26:00,60.4,59.4,29.87,WNW,300,1.0,9.0,96,0.00,,,0.02,0.0,meteohub,2013-02-24 08:26:00,
2013-02-24 03:31:00,60.4,59.4,29.87,SW,234,4.0,9.0,96,0.00,,,0.02,0.0,meteohub,2013-02-24 08:31:00,
2013-02-24 03:36:00,60.4,59.4,29.86,West,275,0.0,9.0,96,0.00,,,0.02,0.0,meteohub,2013-02-24 08:36:00,
2013-02-24 03:41:00,60.4,59.4,29.87,WNW,298,0.0,6.0,96,0.00,,,0.02,0.0,meteohub,2013-02-24 08:41:00,
2013-02-24 03:46:00,60.4,59.4,29.87,WNW,299,3.0,6.0,96,0.00,,,0.02,0.0,meteohub,2013-02-24 08:46:00,
2013-02-24 03:51:00,60.4,59.4,29.87,WSW,242,2.0,6.0,96,0.00,,,0.02,0.0,meteohub,2013-02-24 08:51:00,
2013-02-24 03:56:00,60.6,59.5,29.87,SW,229,3.0,6.0,96,0.00,,,0.02,0.0,meteohub,2013-02-24 08:56:00,
2013-02-24 04:01:00,60.6,59.5,29.87,West,260,0.0,8.0,96,0.00,,,0.02,0.0,meteohub,2013-02-24 09:01:00,
2013-02-24 04:06:00,60.6,59.5,29.87,West,276,3.0,8.0,96,0.00,,,0.02,0.0,meteohub,2013-02-24 09:06:00,
2013-02-24 04:11:00,60.6,59.5,29.87,West,274,1.0,6.0,96,0.00,,,0.02,0.0,meteohub,2013-02-24 09:11:00,
2013-02-24 04:16:00,60.6,59.5,29.87,West,273,0.0,4.0,96,0.00,,,0.02,0.0,meteohub,2013-02-24 09:16:00,
2013-02-24 04:21:00,60.6,59.5,29.88,WSW,246,0.0,3.0,96,0.00,,,0.02,0.0,meteohub,2013-02-24 09:21:00,
2013-02-24 04:26:00,60.6,59.5,29.87,West,280,0.0,4.0,96,0.00,,,0.02,0.0,meteohub,2013-02-24 09:26:00,
2013-02-24 04:31:00,60.6,59.5,29.87,West,280,1.0,4.0,96,0.00,,,0.02,0.0,meteohub,2013-02-24 09:31:00,
2013-02-24 04:36:00,60.6,59.5,29.87,West,280,0.0,4.0,96,0.00,,,0.02,0.0,meteohub,2013-02-24 09:36:00,
2013-02-24 04:41:00,60.6,59.5,29.88,West,280,0.0,4.0,96,0.00,,,0.02,0.0,meteohub,2013-02-24 09:41:00,
2013-02-24 04:46:00,60.6,59.5,29.88,West,280,0.0,4.0,96,0.00,,,0.02,0.0,meteohub,2013-02-24 09:46:00,
2013-02-24 04:51:00,60.6,59.5,29.88,West,280,0.0,4.0,96,0.00,,,0.02,0.0,meteohub,2013-02-24 09:51:00,
2013-02-24 04:56:00,60.6,59.5,29.88,WNW,292,1.0,3.0,96,0.00,,,0.02,0.0,meteohub,2013-02-24 09:56:00,
2013-02-24 05:01:00,60.6,59.5,29.88,WNW,290,3.0,4.0,96,0.00,,,0.02,0.0,meteohub,2013-02-24 10:01:00,
2013-02-24 05:06:00,60.6,59.5,29.88,West,280,3.0,6.0,96,0.00,,,0.02,0.0,meteohub,2013-02-24 10:06:00,
2013-02-24 05:11:00,60.6,59.5,29.88,WNW,289,0.0,6.0,96,0.00,,,0.02,0.0,meteohub,2013-02-24 10:11:00,
2013-02-24 05:16:00,60.6,59.5,29.89,WNW,293,4.0,4.0,96,0.00,,,0.02,0.0,meteohub,2013-02-24 10:16:00,
2013-02-24 05:21:00,60.6,59.5,29.89,West,281,2.0,4.0,96,0.00,,,0.02,0.0,meteohub,2013-02-24 10:21:00,
2013-02-24 05:26:00,60.4,59.4,29.89,West,271,0.0,5.0,96,0.00,,,0.02,0.0,meteohub,2013-02-24 10:26:00,
2013-02-24 05:31:00,60.3,59.2,29.90,NNW,340,7.0,7.0,96,0.00,,,0.02,0.0,meteohub,2013-02-24 10:31:00,
2013-02-24 05:36:00,59.7,58.6,29.89,WNW,287,1.0,9.0,96,0.00,,,0.02,0.0,meteohub,2013-02-24 10:36:00,
2013-02-24 05:41:00,59.5,58.5,29.89,WNW,296,0.0,9.0,96,0.00,,,0.02,0.0,meteohub,2013-02-24 10:41:00,
2013-02-24 05:46:00,59.4,58.3,29.90,WNW,300,0.0,9.0,96,0.00,,,0.02,0.0,meteohub,2013-02-24 10:46:00,
2013-02-24 05:51:00,59.0,57.6,29.91,WNW,291,4.0,5.0,95,0.00,,,0.02,0.0,meteohub,2013-02-24 10:51:00,
2013-02-24 05:56:00,58.8,57.7,29.91,WNW,303,0.0,5.0,96,0.00,,,0.02,0.0,meteohub,2013-02-24 10:56:00,
2013-02-24 06:01:00,58.5,57.4,29.91,WNW,291,1.0,5.0,96,0.00,,,0.02,0.0,meteohub,2013-02-24 11:01:00,
2013-02-24 06:06:00,58.3,56.8,29.91,WNW,303,0.0,5.0,95,0.00,,,0.02,0.0,meteohub,2013-02-24 11:06:00,
2013-02-24 06:11:00,58.1,56.7,29.91,WNW,290,3.0,5.0,95,0.00,,,0.02,0.0,meteohub,2013-02-24 11:11:00,
2013-02-24 06:16:00,57.9,56.8,29.91,WNW,287,1.0,5.0,96,0.00,,,0.02,0.0,meteohub,2013-02-24 11:16:00,
2013-02-24 06:21:00,57.7,56.7,29.91,WNW,292,0.0,5.0,96,0.00,,,0.02,0.0,meteohub,2013-02-24 11:21:00,
2013-02-24 06:26:00,57.7,56.3,29.91,WNW,292,0.0,6.0,95,0.00,,,0.02,0.0,meteohub,2013-02-24 11:26:00,
2013-02-24 06:31:00,57.7,56.3,29.91,NW,316,0.0,6.0,95,0.00,,,0.02,0.0,meteohub,2013-02-24 11:31:00,
2013-02-24 06:36:00,57.6,56.1,29.91,NW,315,0.0,6.0,95,0.00,,,0.02,0.0,meteohub,2013-02-24 11:36:00,
2013-02-24 06:41:00,57.6,56.1,29.91,NW,315,1.0,4.0,95,0.00,,,0.02,0.0,meteohub,2013-02-24 11:41:00,
2013-02-24 06:46:00,57.4,55.9,29.91,NW,315,0.0,4.0,95,0.00,,,0.02,0.0,meteohub,2013-02-24 11:46:00,
2013-02-24 06:51:00,57.4,55.9,29.92,NW,316,1.0,3.0,95,0.00,,,0.02,0.0,meteohub,2013-02-24 11:51:00,
2013-02-24 06:56:00,57.2,56.1,29.92,WNW,296,3.0,5.0,96,0.00,,,0.02,0.0,meteohub,2013-02-24 11:56:00,
2013-02-24 07:01:00,57.0,55.6,29.92,WNW,295,0.0,5.0,95,0.00,,,0.02,0.0,meteohub,2013-02-24 12:01:00,
2013-02-24 07:06:00,56.8,55.4,29.93,WNW,296,0.0,5.0,95,0.00,,,0.02,5.0,meteohub,2013-02-24 12:06:00,
2013-02-24 07:11:00,56.8,55.4,29.93,WNW,295,0.0,4.0,95,0.00,,,0.02,9.0,meteohub,2013-02-24 12:11:00,
2013-02-24 07:16:00,56.7,55.2,29.92,WNW,295,0.0,3.0,95,0.00,,,0.02,14.0,meteohub,2013-02-24 12:16:00,
2013-02-24 07:21:00,56.7,55.2,29.92,WNW,296,0.0,1.0,95,0.00,,,0.02,21.0,meteohub,2013-02-24 12:21:00,
2013-02-24 07:26:00,56.7,55.2,29.92,WNW,296,0.0,1.0,95,0.00,,,0.02,28.0,meteohub,2013-02-24 12:26:00,
2013-02-24 07:31:00,56.5,55.0,29.92,WNW,296,0.0,0.0,95,0.00,,,0.02,33.0,meteohub,2013-02-24 12:31:00,
2013-02-24 07:36:00,56.5,55.0,29.92,WNW,295,0.0,1.0,95,0.00,,,0.02,37.0,meteohub,2013-02-24 12:36:00,
2013-02-24 07:41:00,56.1,54.7,29.92,WNW,296,0.0,1.0,95,0.00,,,0.02,53.0,meteohub,2013-02-24 12:41:00,
2013-02-24 07:46:00,56.1,54.7,29.93,WNW,295,1.0,1.0,95,0.00,,,0.02,58.0,meteohub,2013-02-24 12:46:00,
2013-02-24 07:51:00,56.1,54.7,29.93,WNW,296,0.0,2.0,95,0.00,,,0.02,67.0,meteohub,2013-02-24 12:51:00,
2013-02-24 07:56:00,56.1,54.7,29.93,WNW,296,0.0,2.0,95,0.00,,,0.02,76.0,meteohub,2013-02-24 12:56:00,
2013-02-24 08:01:00,56.1,54.7,29.93,WNW,296,0.0,2.0,95,0.00,,,0.02,102.0,meteohub,2013-02-24 13:01:00,
2013-02-24 08:06:00,56.3,54.9,29.94,WNW,295,2.0,2.0,95,0.00,,,0.02,97.0,meteohub,2013-02-24 13:06:00,
2013-02-24 08:11:00,56.3,54.9,29.94,West,279,2.0,5.0,95,0.00,,,0.02,165.0,meteohub,2013-02-24 13:11:00,
2013-02-24 08:16:00,56.5,55.4,29.94,West,281,2.0,5.0,96,0.00,,,0.02,135.0,meteohub,2013-02-24 13:16:00,
2013-02-24 08:21:00,56.7,55.6,29.94,NW,315,3.0,5.0,96,0.00,,,0.02,179.0,meteohub,2013-02-24 13:21:00,
2013-02-24 08:26:00,56.7,55.6,29.94,WNW,295,2.0,5.0,96,0.00,,,0.02,176.0,meteohub,2013-02-24 13:26:00,
2013-02-24 08:31:00,56.5,55.4,29.95,NW,310,3.0,6.0,96,0.00,,,0.02,223.0,meteohub,2013-02-24 13:31:00,
2013-02-24 08:36:00,56.7,55.6,29.95,WNW,294,3.0,6.0,96,0.00,,,0.02,137.0,meteohub,2013-02-24 13:36:00,
2013-02-24 08:41:00,56.7,55.2,29.95,WNW,296,2.0,6.0,95,0.00,,,0.02,244.0,meteohub,2013-02-24 13:41:00,
2013-02-24 08:46:00,56.7,55.2,29.96,West,281,3.0,5.0,95,0.00,,,0.02,288.0,meteohub,2013-02-24 13:46:00,
2013-02-24 08:51:00,56.8,55.4,29.96,WNW,284,1.0,5.0,95,0.00,,,0.02,211.0,meteohub,2013-02-24 13:51:00,
2013-02-24 08:56:00,56.8,55.4,29.96,WNW,285,1.0,5.0,95,0.00,,,0.02,301.0,meteohub,2013-02-24 13:56:00,
2013-02-24 09:01:00,57.0,55.6,29.96,SW,220,1.0,5.0,95,0.00,,,0.02,359.0,meteohub,2013-02-24 14:01:00,
2013-02-24 09:06:00,57.6,56.1,29.96,WNW,287,0.0,4.0,95,0.00,,,0.02,332.0,meteohub,2013-02-24 14:06:00,
2013-02-24 09:11:00,57.7,56.3,29.96,WNW,287,0.0,4.0,95,0.00,,,0.02,392.0,meteohub,2013-02-24 14:11:00,
2013-02-24 09:16:00,57.9,56.5,29.96,NW,318,0.0,3.0,95,0.00,,,0.02,376.0,meteohub,2013-02-24 14:16:00,
2013-02-24 09:21:00,58.1,56.7,29.96,West,277,2.0,5.0,95,0.00,,,0.02,345.0,meteohub,2013-02-24 14:21:00,
2013-02-24 09:27:00,58.5,57.0,29.97,West,279,0.0,5.0,95,0.00,,,0.02,366.0,meteohub,2013-02-24 14:27:00,
2013-02-24 09:32:00,58.6,57.2,29.96,NW,308,5.0,5.0,95,0.00,,,0.02,239.0,meteohub,2013-02-24 14:32:00,
2013-02-24 09:37:00,58.6,57.2,29.96,West,281,3.0,5.0,95,0.00,,,0.02,420.0,meteohub,2013-02-24 14:37:00,
2013-02-24 09:42:00,58.8,57.4,29.96,WNW,290,0.0,5.0,95,0.00,,,0.02,457.0,meteohub,2013-02-24 14:42:00,
2013-02-24 09:47:00,59.0,57.2,29.96,WNW,290,3.0,5.0,94,0.00,,,0.02,554.0,meteohub,2013-02-24 14:47:00,
2013-02-24 09:52:00,59.0,57.2,29.96,WNW,293,1.0,6.0,94,0.00,,,0.02,410.0,meteohub,2013-02-24 14:52:00,
2013-02-24 09:57:00,59.4,57.6,29.96,WSW,250,0.0,6.0,94,0.00,,,0.02,432.0,meteohub,2013-02-24 14:57:00,
2013-02-24 10:02:00,59.5,57.6,29.96,NW,326,3.0,6.0,93,0.00,,,0.02,554.0,meteohub,2013-02-24 15:02:00,
2013-02-24 10:07:00,59.7,57.7,29.96,NNW,337,2.0,5.0,93,0.00,,,0.02,636.0,meteohub,2013-02-24 15:07:00,
2013-02-24 10:12:00,60.4,58.5,29.97,WNW,297,4.0,5.0,93,0.00,,,0.02,550.0,meteohub,2013-02-24 15:12:00,
2013-02-24 10:17:00,60.6,58.3,29.97,WNW,296,3.0,6.0,92,0.00,,,0.02,573.0,meteohub,2013-02-24 15:17:00,
2013-02-24 10:22:00,60.8,58.5,29.97,WNW,303,4.0,6.0,92,0.00,,,0.02,577.0,meteohub,2013-02-24 15:22:00,
2013-02-24 10:27:00,61.2,58.5,29.97,West,274,4.0,6.0,91,0.00,,,0.02,649.0,meteohub,2013-02-24 15:27:00,
2013-02-24 10:32:00,61.5,58.8,29.97,West,275,0.0,6.0,91,0.00,,,0.02,591.0,meteohub,2013-02-24 15:32:00,
2013-02-24 10:37:00,62.1,59.2,29.97,NW,309,5.0,6.0,90,0.00,,,0.02,585.0,meteohub,2013-02-24 15:37:00,
2013-02-24 10:42:00,62.4,59.2,29.97,West,280,2.0,7.0,89,0.00,,,0.02,608.0,meteohub,2013-02-24 15:42:00,
2013-02-24 10:47:00,62.6,59.4,29.97,WSW,250,2.0,7.0,89,0.00,,,0.02,682.0,meteohub,2013-02-24 15:47:00,
2013-02-24 10:52:00,62.8,59.2,29.97,WNW,284,7.0,8.0,88,0.00,,,0.02,661.0,meteohub,2013-02-24 15:52:00,
2013-02-24 10:57:00,63.0,59.4,29.97,North,5,0.0,9.0,88,0.00,,,0.02,735.0,meteohub,2013-02-24 15:57:00,
2013-02-24 11:02:00,63.1,59.5,29.97,WNW,291,2.0,9.0,88,0.00,,,0.02,724.0,meteohub,2013-02-24 16:02:00,
2013-02-24 11:07:00,63.5,59.5,29.97,WNW,294,3.0,9.0,87,0.00,,,0.02,737.0,meteohub,2013-02-24 16:07:00,
2013-02-24 11:12:00,63.9,59.5,29.97,WNW,286,1.0,6.0,86,0.00,,,0.02,733.0,meteohub,2013-02-24 16:12:00,
2013-02-24 11:17:00,64.0,59.4,29.97,NNW,333,2.0,6.0,85,0.00,,,0.02,758.0,meteohub,2013-02-24 16:17:00,
2013-02-24 11:22:00,64.2,59.5,29.97,West,277,3.0,8.0,85,0.00,,,0.02,758.0,meteohub,2013-02-24 16:22:00,
2013-02-24 11:27:00,64.6,59.7,29.97,NW,304,2.0,8.0,84,0.00,,,0.02,768.0,meteohub,2013-02-24 16:27:00,
2013-02-24 11:32:00,64.9,59.7,29.97,WNW,298,3.0,8.0,83,0.00,,,0.02,773.0,meteohub,2013-02-24 16:32:00,
2013-02-24 11:37:00,65.1,59.5,29.97,NW,314,4.0,7.0,82,0.00,,,0.02,777.0,meteohub,2013-02-24 16:37:00,
2013-02-24 11:42:00,65.7,59.7,29.97,NE,49,6.0,7.0,81,0.00,,,0.02,729.0,meteohub,2013-02-24 16:42:00,
2013-02-24 11:47:00,65.8,59.2,29.97,WNW,292,3.0,7.0,79,0.00,,,0.02,807.0,meteohub,2013-02-24 16:47:00,
2013-02-24 11:52:00,66.0,59.4,29.97,WNW,292,3.0,7.0,79,0.00,,,0.02,802.0,meteohub,2013-02-24 16:52:00,
2013-02-24 11:57:00,66.0,59.4,29.96,West,281,0.0,7.0,79,0.00,,,0.02,807.0,meteohub,2013-02-24 16:57:00,
2013-02-24 12:01:00,66.4,59.4,29.96,NNW,327,5.0,7.0,78,0.00,,,0.02,814.0,meteohub,2013-02-24 17:01:00,
2013-02-24 12:07:00,66.6,59.2,29.96,North,10,3.0,7.0,77,0.00,,,0.02,819.0,meteohub,2013-02-24 17:07:00,
2013-02-24 12:12:00,66.7,59.0,29.96,NNE,14,3.0,7.0,76,0.00,,,0.02,819.0,meteohub,2013-02-24 17:12:00,
2013-02-24 12:17:00,66.9,58.8,29.96,NE,49,6.0,8.0,75,0.00,,,0.02,821.0,meteohub,2013-02-24 17:17:00,
2013-02-24 12:22:00,67.1,59.4,29.96,NW,325,4.0,8.0,76,0.00,,,0.02,823.0,meteohub,2013-02-24 17:22:00,
2013-02-24 12:27:00,67.5,58.5,29.96,West,281,5.0,8.0,73,0.00,,,0.02,828.0,meteohub,2013-02-24 17:27:00,
2013-02-24 12:32:00,67.6,58.6,29.96,NNW,328,0.0,8.0,73,0.00,,,0.02,831.0,meteohub,2013-02-24 17:32:00,
2013-02-24 12:37:00,68.0,59.0,29.96,WNW,294,1.0,8.0,73,0.00,,,0.02,831.0,meteohub,2013-02-24 17:37:00,
2013-02-24 12:42:00,68.4,59.0,29.95,WNW,291,0.0,8.0,72,0.00,,,0.02,830.0,meteohub,2013-02-24 17:42:00,
2013-02-24 12:47:00,68.5,59.5,29.95,West,275,1.0,8.0,73,0.00,,,0.02,833.0,meteohub,2013-02-24 17:47:00,
2013-02-24 12:52:00,69.1,59.4,29.95,WNW,295,3.0,8.0,71,0.00,,,0.02,828.0,meteohub,2013-02-24 17:52:00,
2013-02-24 12:57:00,69.1,58.1,29.94,West,277,8.0,8.0,68,0.00,,,0.02,830.0,meteohub,2013-02-24 17:57:00,
2013-02-24 13:02:00,69.1,58.8,29.94,WSW,248,1.0,9.0,70,0.00,,,0.02,824.0,meteohub,2013-02-24 18:02:00,
2013-02-24 13:07:00,69.4,59.2,29.94,North,0,2.0,9.0,70,0.00,,,0.02,826.0,meteohub,2013-02-24 18:07:00,
2013-02-24 13:12:00,69.4,58.8,29.94,WSW,247,2.0,9.0,69,0.00,,,0.02,821.0,meteohub,2013-02-24 18:12:00,
2013-02-24 13:17:00,69.8,59.2,29.94,West,277,6.0,8.0,69,0.00,,,0.02,744.0,meteohub,2013-02-24 18:17:00,
2013-02-24 13:22:00,70.0,59.0,29.94,East,84,0.0,10.0,68,0.00,,,0.02,744.0,meteohub,2013-02-24 18:22:00,
2013-02-24 13:27:00,70.3,59.7,29.94,SW,222,2.0,10.0,69,0.00,,,0.02,759.0,meteohub,2013-02-24 18:27:00,
2013-02-24 13:32:00,70.3,58.8,29.94,NE,38,0.0,7.0,67,0.00,,,0.02,754.0,meteohub,2013-02-24 18:32:00,
2013-02-24 13:37:00,70.5,59.4,29.94,WNW,290,3.0,8.0,68,0.00,,,0.02,775.0,meteohub,2013-02-24 18:37:00,
2013-02-24 13:42:00,70.5,59.0,29.94,NNE,27,1.0,8.0,67,0.00,,,0.02,592.0,meteohub,2013-02-24 18:42:00,
2013-02-24 13:47:00,70.7,58.8,29.94,SW,226,2.0,5.0,66,0.00,,,0.02,671.0,meteohub,2013-02-24 18:47:00,
2013-02-24 13:52:00,70.9,59.0,29.94,NNE,18,0.0,6.0,66,0.00,,,0.02,693.0,meteohub,2013-02-24 18:52:00,
2013-02-24 13:57:00,70.9,58.1,29.94,NW,315,0.0,6.0,64,0.00,,,0.02,772.0,meteohub,2013-02-24 18:57:00,
2013-02-24 14:02:00,71.1,58.3,29.94,WNW,289,1.0,6.0,64,0.00,,,0.02,506.0,meteohub,2013-02-24 19:02:00,
2013-02-24 14:07:00,71.4,58.6,29.93,NW,315,5.0,11.0,64,0.00,,,0.02,740.0,meteohub,2013-02-24 19:07:00,
2013-02-24 14:12:00,71.6,58.8,29.93,WNW,295,3.0,11.0,64,0.00,,,0.02,719.0,meteohub,2013-02-24 19:12:00,
2013-02-24 14:17:00,71.6,58.3,29.93,West,272,3.0,11.0,63,0.00,,,0.02,527.0,meteohub,2013-02-24 19:17:00,
2013-02-24 14:22:00,71.2,57.9,29.92,WNW,294,0.0,7.0,63,0.00,,,0.02,657.0,meteohub,2013-02-24 19:22:00,
2013-02-24 14:27:00,71.2,57.9,29.92,WNW,284,0.0,7.0,63,0.00,,,0.02,691.0,meteohub,2013-02-24 19:27:00,
2013-02-24 14:32:00,71.2,57.0,29.92,NE,38,1.0,7.0,61,0.00,,,0.02,649.0,meteohub,2013-02-24 19:32:00,
2013-02-24 14:37:00,71.4,57.7,29.92,SW,232,1.0,9.0,62,0.00,,,0.02,508.0,meteohub,2013-02-24 19:37:00,
2013-02-24 14:42:00,72.0,57.7,29.92,WNW,282,1.0,9.0,61,0.00,,,0.02,455.0,meteohub,2013-02-24 19:42:00,
2013-02-24 14:47:00,72.0,57.7,29.92,WNW,294,1.0,9.0,61,0.00,,,0.02,577.0,meteohub,2013-02-24 19:47:00,
2013-02-24 14:52:00,71.8,57.2,29.91,NNW,331,3.0,6.0,60,0.00,,,0.02,490.0,meteohub,2013-02-24 19:52:00,
2013-02-24 14:57:00,71.6,56.5,29.91,NW,304,2.0,7.0,59,0.00,,,0.02,288.0,meteohub,2013-02-24 19:57:00,
2013-02-24 15:02:00,71.4,55.9,29.91,NE,46,5.0,7.0,58,0.00,,,0.02,271.0,meteohub,2013-02-24 20:02:00,
2013-02-24 15:07:00,71.1,55.6,29.91,NE,45,0.0,7.0,58,0.00,,,0.02,512.0,meteohub,2013-02-24 20:07:00,
2013-02-24 15:12:00,71.2,55.8,29.91,NE,46,1.0,7.0,58,0.00,,,0.02,288.0,meteohub,2013-02-24 20:12:00,
2013-02-24 15:17:00,71.6,56.1,29.91,NNW,340,1.0,7.0,58,0.00,,,0.02,316.0,meteohub,2013-02-24 20:17:00,
2013-02-24 15:22:00,71.8,56.1,29.91,West,279,7.0,7.0,58,0.00,,,0.02,374.0,meteohub,2013-02-24 20:22:00,
2013-02-24 15:27:00,72.0,55.9,29.91,WNW,291,1.0,7.0,57,0.00,,,0.02,548.0,meteohub,2013-02-24 20:27:00,
2013-02-24 15:32:00,72.0,55.4,29.91,WSW,250,2.0,7.0,56,0.00,,,0.02,424.0,meteohub,2013-02-24 20:32:00,
2013-02-24 15:37:00,72.1,55.6,29.91,WSW,249,0.0,7.0,56,0.00,,,0.02,338.0,meteohub,2013-02-24 20:37:00,
2013-02-24 15:42:00,72.3,57.2,29.91,ESE,114,1.0,5.0,59,0.00,,,0.02,359.0,meteohub,2013-02-24 20:42:00,
2013-02-24 15:48:00,71.6,57.9,29.91,SE,144,1.0,7.0,62,0.00,,,0.02,388.0,meteohub,2013-02-24 20:48:00,
2013-02-24 15:53:00,71.1,58.3,29.91,SE,125,2.0,7.0,64,0.00,,,0.02,510.0,meteohub,2013-02-24 20:53:00,
2013-02-24 15:58:00,70.5,58.1,29.91,SSE,148,2.0,8.0,65,0.00,,,0.02,429.0,meteohub,2013-02-24 20:58:00,
2013-02-24 16:03:00,70.3,58.1,29.91,East,90,0.0,8.0,65,0.00,,,0.02,396.0,meteohub,2013-02-24 21:03:00,
2013-02-24 16:08:00,70.2,57.9,29.91,ESE,116,3.0,8.0,65,0.00,,,0.02,271.0,meteohub,2013-02-24 21:08:00,
2013-02-24 16:13:00,70.2,57.9,29.91,East,98,0.0,7.0,65,0.00,,,0.02,318.0,meteohub,2013-02-24 21:13:00,
2013-02-24 16:18:00,69.6,57.7,29.91,East,94,2.0,7.0,66,0.00,,,0.02,269.0,meteohub,2013-02-24 21:18:00,
2013-02-24 16:23:00,69.3,57.4,29.91,SSE,152,2.0,7.0,66,0.00,,,0.02,338.0,meteohub,2013-02-24 21:23:00,
2013-02-24 16:28:00,68.7,57.4,29.91,SE,133,1.0,7.0,67,0.00,,,0.02,290.0,meteohub,2013-02-24 21:28:00,
2013-02-24 16:33:00,68.4,57.0,29.92,SE,129,2.0,7.0,67,0.00,,,0.02,192.0,meteohub,2013-02-24 21:33:00,
2013-02-24 16:38:00,67.8,56.8,29.92,ENE,68,3.0,6.0,68,0.00,,,0.02,244.0,meteohub,2013-02-24 21:38:00,
2013-02-24 16:43:00,67.3,56.3,29.92,South,178,1.0,7.0,68,0.00,,,0.02,176.0,meteohub,2013-02-24 21:43:00,
2013-02-24 16:48:00,66.9,55.9,29.92,SE,130,1.0,7.0,68,0.00,,,0.02,165.0,meteohub,2013-02-24 21:48:00,
2013-02-24 16:53:00,66.6,55.6,29.92,South,188,4.0,7.0,68,0.00,,,0.02,190.0,meteohub,2013-02-24 21:53:00,
2013-02-24 16:58:00,66.2,55.8,29.92,SSE,155,1.0,5.0,69,0.00,,,0.02,121.0,meteohub,2013-02-24 21:58:00,
2013-02-24 17:03:00,65.8,55.4,29.92,ESE,114,1.0,6.0,69,0.00,,,0.02,111.0,meteohub,2013-02-24 22:03:00,
2013-02-24 17:08:00,65.7,55.6,29.92,East,94,0.0,6.0,70,0.00,,,0.02,141.0,meteohub,2013-02-24 22:08:00,
2013-02-24 17:13:00,65.5,55.4,29.92,SE,140,0.0,6.0,70,0.00,,,0.02,127.0,meteohub,2013-02-24 22:13:00,
2013-02-24 17:18:00,65.5,55.8,29.92,SSE,155,1.0,5.0,71,0.00,,,0.02,114.0,meteohub,2013-02-24 22:18:00,
2013-02-24 17:23:00,65.3,55.6,29.92,South,179,1.0,4.0,71,0.00,,,0.02,70.0,meteohub,2013-02-24 22:23:00,
2013-02-24 17:28:00,64.9,55.4,29.92,SSE,163,2.0,5.0,71,0.00,,,0.02,60.0,meteohub,2013-02-24 22:28:00,
2013-02-24 17:33:00,64.8,55.6,29.92,SSE,161,0.0,5.0,72,0.00,,,0.02,46.0,meteohub,2013-02-24 22:33:00,
2013-02-24 17:38:00,64.4,55.2,29.92,SSE,162,0.0,5.0,72,0.00,,,0.02,44.0,meteohub,2013-02-24 22:38:00,
2013-02-24 17:43:00,64.0,55.2,29.92,SSE,161,1.0,3.0,73,0.00,,,0.02,44.0,meteohub,2013-02-24 22:43:00,
2013-02-24 17:48:00,63.7,54.9,29.93,SE,126,0.0,4.0,73,0.00,,,0.02,40.0,meteohub,2013-02-24 22:48:00,
2013-02-24 17:53:00,63.3,54.5,29.93,East,81,2.0,4.0,73,0.00,,,0.02,33.0,meteohub,2013-02-24 22:53:00,
2013-02-24 17:58:00,63.1,54.3,29.93,East,84,0.0,4.0,73,0.00,,,0.02,23.0,meteohub,2013-02-24 22:58:00,
2013-02-24 18:03:00,63.0,54.5,29.93,ESE,109,1.0,3.0,74,0.00,,,0.02,14.0,meteohub,2013-02-24 23:03:00,
2013-02-24 18:08:00,62.4,54.3,29.94,ESE,123,0.0,5.0,75,0.00,,,0.02,7.0,meteohub,2013-02-24 23:08:00,
2013-02-24 18:13:00,62.2,54.1,29.94,SE,133,0.0,5.0,75,0.00,,,0.02,0.0,meteohub,2013-02-24 23:13:00,
2013-02-24 18:18:00,62.1,54.0,29.94,SE,140,1.0,4.0,75,0.00,,,0.02,0.0,meteohub,2013-02-24 23:18:00,
2013-02-24 18:23:00,61.7,54.1,29.94,SE,146,0.0,4.0,76,0.00,,,0.02,0.0,meteohub,2013-02-24 23:23:00,
2013-02-24 18:28:00,61.3,53.8,29.94,SE,146,0.0,3.0,76,0.00,,,0.02,0.0,meteohub,2013-02-24 23:28:00,
2013-02-24 18:33:00,61.2,53.6,29.94,SE,146,0.0,3.0,76,0.00,,,0.02,0.0,meteohub,2013-02-24 23:33:00,
2013-02-24 18:38:00,61.0,53.8,29.94,SE,146,0.0,3.0,77,0.00,,,0.02,0.0,meteohub,2013-02-24 23:38:00,
2013-02-24 18:43:00,60.6,53.4,29.94,SE,146,0.0,1.0,77,0.00,,,0.02,0.0,meteohub,2013-02-24 23:43:00,
2013-02-24 18:48:00,60.4,53.2,29.95,SE,146,0.0,1.0,77,0.00,,,0.02,0.0,meteohub,2013-02-24 23:48:00,
2013-02-24 18:53:00,60.3,53.1,29.94,SE,146,0.0,1.0,77,0.00,,,0.02,0.0,meteohub,2013-02-24 23:53:00,
2013-02-24 18:58:00,60.1,53.2,29.95,SE,146,0.0,1.0,78,0.00,,,0.02,0.0,meteohub,2013-02-24 23:58:00,
2013-02-24 19:03:00,59.9,53.1,29.95,SE,146,0.0,1.0,78,0.00,,,0.02,0.0,meteohub,2013-02-25 00:03:00,
2013-02-24 19:08:00,59.7,52.9,29.95,SE,146,0.0,1.0,78,0.00,,,0.02,0.0,meteohub,2013-02-25 00:08:00,
2013-02-24 19:13:00,59.5,53.1,29.95,SE,146,0.0,1.0,79,0.00,,,0.02,0.0,meteohub,2013-02-25 00:13:00,
2013-02-24 19:18:00,59.4,52.9,29.95,SE,146,0.0,0.0,79,0.00,,,0.02,0.0,meteohub,2013-02-25 00:18:00,
2013-02-24 19:23:00,59.2,52.7,29.95,SE,146,0.0,1.0,79,0.00,,,0.02,0.0,meteohub,2013-02-25 00:23:00,
2013-02-24 19:28:00,59.0,52.9,29.95,SE,146,0.0,1.0,80,0.00,,,0.02,0.0,meteohub,2013-02-25 00:28:00,
2013-02-24 19:33:00,59.0,52.9,29.95,SE,146,0.0,1.0,80,0.00,,,0.02,0.0,meteohub,2013-02-25 00:33:00,
2013-02-24 19:38:00,58.8,52.7,29.96,SE,146,0.0,0.0,80,0.00,,,0.02,0.0,meteohub,2013-02-25 00:38:00,
2013-02-24 19:43:00,58.6,52.5,29.96,SE,146,0.0,0.0,80,0.00,,,0.02,0.0,meteohub,2013-02-25 00:43:00,
2013-02-24 19:48:00,58.5,52.7,29.96,SE,146,0.0,1.0,81,0.00,,,0.02,0.0,meteohub,2013-02-25 00:48:00,
2013-02-24 19:53:00,58.3,52.5,29.96,SE,146,0.0,1.0,81,0.00,,,0.02,0.0,meteohub,2013-02-25 00:53:00,
2013-02-24 19:58:00,58.3,52.5,29.96,SE,146,0.0,1.0,81,0.00,,,0.02,0.0,meteohub,2013-02-25 00:58:00,
2013-02-24 20:03:00,58.3,52.5,29.96,SE,146,0.0,0.0,81,0.00,,,0.02,0.0,meteohub,2013-02-25 01:03:00,
2013-02-24 20:08:00,58.1,52.7,29.96,SE,146,0.0,1.0,82,0.00,,,0.02,0.0,meteohub,2013-02-25 01:08:00,
2013-02-24 20:13:00,58.3,52.9,29.96,SE,146,0.0,1.0,82,0.00,,,0.02,0.0,meteohub,2013-02-25 01:13:00,
2013-02-24 20:18:00,58.3,52.9,29.95,SE,146,0.0,1.0,82,0.00,,,0.02,0.0,meteohub,2013-02-25 01:18:00,
2013-02-24 20:23:00,58.3,52.9,29.95,SE,146,0.0,0.0,82,0.00,,,0.02,0.0,meteohub,2013-02-25 01:23:00,
2013-02-24 20:28:00,58.5,53.2,29.95,SE,146,0.0,0.0,83,0.00,,,0.02,0.0,meteohub,2013-02-25 01:28:00,
2013-02-24 20:33:00,58.3,53.1,29.96,SE,146,0.0,0.0,83,0.00,,,0.02,0.0,meteohub,2013-02-25 01:33:00,
2013-02-24 20:38:00,58.1,52.9,29.96,SE,146,0.0,0.0,83,0.00,,,0.02,0.0,meteohub,2013-02-25 01:38:00,
2013-02-24 20:43:00,57.9,52.7,29.96,SE,146,0.0,0.0,83,0.00,,,0.02,0.0,meteohub,2013-02-25 01:43:00,
2013-02-24 20:48:00,57.7,52.7,29.96,SE,146,0.0,0.0,83,0.00,,,0.02,0.0,meteohub,2013-02-25 01:48:00,
2013-02-24 20:53:00,57.6,52.7,29.96,SE,146,0.0,0.0,84,0.00,,,0.02,0.0,meteohub,2013-02-25 01:53:00,
2013-02-24 20:58:00,57.6,52.7,29.96,SE,146,0.0,0.0,84,0.00,,,0.02,0.0,meteohub,2013-02-25 01:58:00,
2013-02-24 21:03:00,57.6,52.7,29.96,SE,146,0.0,0.0,84,0.00,,,0.02,0.0,meteohub,2013-02-25 02:03:00,
2013-02-24 21:08:00,57.6,52.7,29.96,SE,146,0.0,1.0,84,0.00,,,0.02,0.0,meteohub,2013-02-25 02:08:00,
2013-02-24 21:13:00,57.6,52.7,29.96,SE,146,0.0,1.0,84,0.00,,,0.02,0.0,meteohub,2013-02-25 02:13:00,
2013-02-24 21:18:00,57.6,52.7,29.96,SE,146,0.0,1.0,84,0.00,,,0.02,0.0,meteohub,2013-02-25 02:18:00,
2013-02-24 21:23:00,57.6,53.1,29.96,SE,146,0.0,1.0,85,0.00,,,0.02,0.0,meteohub,2013-02-25 02:23:00,
2013-02-24 21:28:00,57.4,52.9,29.96,SE,146,0.0,1.0,85,0.00,,,0.02,0.0,meteohub,2013-02-25 02:28:00,
2013-02-24 21:33:00,57.2,52.7,29.96,SE,146,0.0,1.0,85,0.00,,,0.02,0.0,meteohub,2013-02-25 02:33:00,
2013-02-24 21:38:00,57.0,52.5,29.96,SE,146,0.0,0.0,85,0.00,,,0.02,0.0,meteohub,2013-02-25 02:38:00,
2013-02-24 21:43:00,57.2,52.7,29.97,SE,146,0.0,0.0,85,0.00,,,0.02,0.0,meteohub,2013-02-25 02:43:00,
2013-02-24 21:48:00,57.2,52.7,29.97,SE,146,0.0,0.0,85,0.00,,,0.02,0.0,meteohub,2013-02-25 02:48:00,
2013-02-24 21:53:00,57.4,53.2,29.96,SE,146,0.0,0.0,86,0.00,,,0.02,0.0,meteohub,2013-02-25 02:53:00,
2013-02-24 21:58:00,57.4,53.2,29.96,SE,146,0.0,0.0,86,0.00,,,0.02,0.0,meteohub,2013-02-25 02:58:00,
2013-02-24 22:03:00,57.4,53.2,29.96,SE,146,0.0,0.0,86,0.00,,,0.02,0.0,meteohub,2013-02-25 03:03:00,
2013-02-24 22:08:00,57.4,53.2,29.96,SE,146,0.0,0.0,86,0.00,,,0.02,0.0,meteohub,2013-02-25 03:08:00,
2013-02-24 22:13:00,57.0,52.9,29.96,SE,146,0.0,0.0,86,0.00,,,0.02,0.0,meteohub,2013-02-25 03:13:00,
2013-02-24 22:18:00,57.0,52.9,29.96,SE,146,0.0,0.0,86,0.00,,,0.02,0.0,meteohub,2013-02-25 03:18:00,
2013-02-24 22:23:00,56.8,53.1,29.96,SE,146,0.0,0.0,87,0.00,,,0.02,0.0,meteohub,2013-02-25 03:23:00,
2013-02-24 22:28:00,56.8,53.1,29.96,SE,146,0.0,0.0,87,0.00,,,0.02,0.0,meteohub,2013-02-25 03:28:00,
2013-02-24 22:33:00,56.8,53.1,29.96,SE,146,0.0,0.0,87,0.00,,,0.02,0.0,meteohub,2013-02-25 03:33:00,
2013-02-24 22:38:00,56.8,53.1,29.96,SE,146,0.0,0.0,87,0.00,,,0.02,0.0,meteohub,2013-02-25 03:38:00,
2013-02-24 22:43:00,57.0,53.2,29.96,SE,146,0.0,1.0,87,0.00,,,0.02,0.0,meteohub,2013-02-25 03:43:00,
2013-02-24 22:48:00,57.2,53.4,29.96,SE,146,0.0,1.0,87,0.00,,,0.02,0.0,meteohub,2013-02-25 03:48:00,
2013-02-24 22:53:00,57.2,53.4,29.96,SE,146,0.0,1.0,87,0.00,,,0.02,0.0,meteohub,2013-02-25 03:53:00,
2013-02-24 22:58:00,57.2,53.4,29.96,SE,146,0.0,1.0,87,0.00,,,0.02,0.0,meteohub,2013-02-25 03:58:00,
2013-02-24 23:03:00,57.4,53.6,29.96,SE,146,0.0,0.0,87,0.00,,,0.02,0.0,meteohub,2013-02-25 04:03:00,
2013-02-24 23:08:00,57.4,53.6,29.96,SE,146,0.0,0.0,87,0.00,,,0.02,0.0,meteohub,2013-02-25 04:08:00,
2013-02-24 23:13:00,57.6,53.8,29.96,SE,146,0.0,0.0,87,0.00,,,0.02,0.0,meteohub,2013-02-25 04:13:00,
2013-02-24 23:18:00,57.6,53.8,29.96,SE,146,0.0,0.0,87,0.00,,,0.02,0.0,meteohub,2013-02-25 04:18:00,
2013-02-24 23:23:00,57.6,54.0,29.95,SE,146,0.0,0.0,88,0.00,,,0.02,0.0,meteohub,2013-02-25 04:23:00,
2013-02-24 23:28:00,57.7,54.1,29.95,SE,146,0.0,0.0,88,0.00,,,0.02,0.0,meteohub,2013-02-25 04:28:00,
2013-02-24 23:33:00,57.6,54.0,29.95,SE,146,0.0,0.0,88,0.00,,,0.02,0.0,meteohub,2013-02-25 04:33:00,
2013-02-24 23:38:00,57.6,54.0,29.95,SE,146,0.0,0.0,88,0.00,,,0.02,0.0,meteohub,2013-02-25 04:38:00,
2013-02-24 23:43:00,57.7,54.1,29.94,SE,146,0.0,0.0,88,0.00,,,0.02,0.0,meteohub,2013-02-25 04:43:00,
2013-02-24 23:48:00,57.7,54.1,29.94,SE,146,0.0,0.0,88,0.00,,,0.02,0.0,meteohub,2013-02-25 04:48:00,
2013-02-24 23:53:00,57.9,54.3,29.94,SE,146,0.0,1.0,88,0.00,,,0.02,0.0,meteohub,2013-02-25 04:53:00,
2013-02-24 23:58:00,57.9,54.3,29.93,SE,146,0.0,1.0,88,0.00,,,0.02,0.0,meteohub,2013-02-25 04:58:00,